createdAt,value
2017-05-26T00:02:04.614Z,5.06
2017-05-26T00:04:32.894Z,5.92
2017-05-26T00:07:01.511Z,8.78
2017-05-26T00:09:29.796Z,5.56
2017-05-26T00:11:58.131Z,4.90
2017-05-26T00:14:26.421Z,6.36
2017-05-26T00:16:54.721Z,5.84
2017-05-26T00:19:23.047Z,6.56
2017-05-26T00:21:52.029Z,6.18
2017-05-26T00:24:20.341Z,5.48
2017-05-26T00:26:48.959Z,9.38
2017-05-26T00:29:17.235Z,4.80
2017-05-26T00:31:45.526Z,4.98
2017-05-26T00:34:13.859Z,5.46
2017-05-26T00:36:42.141Z,5.26
2017-05-26T00:39:10.423Z,5.18
2017-05-26T00:41:38.753Z,4.80
2017-05-26T00:44:07.035Z,5.74
2017-05-26T00:46:35.314Z,5.84
2017-05-26T00:49:03.796Z,4.54
2017-05-26T00:51:32.084Z,5.86
2017-05-26T00:54:00.378Z,4.68
2017-05-26T00:56:28.757Z,6.72
2017-05-26T00:58:57.061Z,5.12
2017-05-26T01:01:25.344Z,5.02
2017-05-26T01:03:53.664Z,5.18
2017-05-26T01:06:21.954Z,7.10
2017-05-26T01:08:50.235Z,4.84
2017-05-26T01:11:18.572Z,5.52
2017-05-26T01:13:46.864Z,5.02
2017-05-26T01:16:15.147Z,5.92
2017-05-26T01:18:43.577Z,5.40
2017-05-26T01:21:11.854Z,6.00
2017-05-26T01:23:40.232Z,5.88
2017-05-26T01:26:08.544Z,5.98
2017-05-26T01:28:36.822Z,5.14
2017-05-26T01:31:05.536Z,6.04
2017-05-26T01:33:33.827Z,5.86
2017-05-26T01:36:02.144Z,5.36
2017-05-26T01:38:30.439Z,5.82
2017-05-26T01:40:58.731Z,5.30
2017-05-26T01:43:27.059Z,5.58
2017-05-26T01:45:55.439Z,6.20
2017-05-26T01:48:23.752Z,5.80
2017-05-26T01:50:52.077Z,6.16
2017-05-26T01:53:20.365Z,7.04
2017-05-26T01:55:48.703Z,6.18
2017-05-26T01:58:16.979Z,5.82
2017-05-26T02:00:45.255Z,5.82
2017-05-26T02:03:13.905Z,5.46
2017-05-26T02:05:42.196Z,5.30
2017-05-26T02:08:10.497Z,7.00
2017-05-26T02:10:38.822Z,5.92
2017-05-26T02:13:07.113Z,6.24
2017-05-26T02:15:35.423Z,6.46
2017-05-26T02:18:03.712Z,6.78
2017-05-26T02:20:32.031Z,6.86
2017-05-26T02:23:00.320Z,6.82
2017-05-26T02:25:28.656Z,7.58
2017-05-26T02:27:56.945Z,7.00
2017-05-26T02:30:25.229Z,7.56
2017-05-26T02:32:53.555Z,7.10
2017-05-26T02:35:21.847Z,7.52
2017-05-26T02:37:50.136Z,7.82
2017-05-26T02:40:18.468Z,7.72
2017-05-26T02:42:46.757Z,8.70
2017-05-26T02:45:15.052Z,9.70
2017-05-26T02:47:43.367Z,7.14
2017-05-26T02:50:11.983Z,8.12
2017-05-26T02:52:40.276Z,8.38
2017-05-26T02:55:08.945Z,8.06
2017-05-26T02:57:37.241Z,7.14
2017-05-26T03:00:05.535Z,7.54
2017-05-26T03:02:33.861Z,7.82
2017-05-26T03:05:02.161Z,7.42
2017-05-26T03:07:30.492Z,6.18
2017-05-26T03:09:58.819Z,8.30
2017-05-26T03:12:27.095Z,6.82
2017-05-26T03:14:55.676Z,8.32
2017-05-26T03:17:23.992Z,8.46
2017-05-26T03:19:52.287Z,8.74
2017-05-26T03:22:20.612Z,8.72
2017-05-26T03:24:48.908Z,8.78
2017-05-26T03:27:17.568Z,8.02
2017-05-26T03:29:45.860Z,8.80
2017-05-26T03:32:14.151Z,8.00
2017-05-26T03:34:42.811Z,9.00
2017-05-26T03:37:11.097Z,8.64
2017-05-26T03:39:39.383Z,8.72
2017-05-26T03:42:07.703Z,8.46
2017-05-26T03:44:36.008Z,8.90
2017-05-26T03:47:04.604Z,8.12
2017-05-26T03:49:32.942Z,8.02
2017-05-26T03:52:01.230Z,9.10
2017-05-26T03:54:29.510Z,8.44
2017-05-26T03:56:58.120Z,9.08
2017-05-26T03:59:26.403Z,8.22
2017-05-26T04:01:54.699Z,11.08
2017-05-26T04:04:23.028Z,11.14
2017-05-26T04:06:51.321Z,10.10
2017-05-26T04:09:19.728Z,8.96
2017-05-26T04:11:48.020Z,9.58
2017-05-26T04:14:16.322Z,10.34
2017-05-26T04:16:44.657Z,11.26
2017-05-26T04:19:13.018Z,10.72
2017-05-26T04:21:41.386Z,11.54
2017-05-26T04:24:09.712Z,10.46
2017-05-26T04:26:37.998Z,9.82
2017-05-26T04:29:06.291Z,10.66
2017-05-26T04:31:34.648Z,11.26
2017-05-26T04:34:02.943Z,10.50
2017-05-26T04:36:31.229Z,10.84
2017-05-26T04:38:59.593Z,11.36
2017-05-26T04:41:27.887Z,11.50
2017-05-26T04:43:56.189Z,10.24
2017-05-26T04:46:24.506Z,11.28
2017-05-26T04:48:52.790Z,11.48
2017-05-26T04:51:21.088Z,12.30
2017-05-26T04:53:49.416Z,12.16
2017-05-26T04:56:17.708Z,12.46
2017-05-26T04:58:46.012Z,13.56
2017-05-26T05:01:14.347Z,15.98
2017-05-26T05:03:42.644Z,16.62
2017-05-26T05:06:10.956Z,15.14
2017-05-26T05:08:39.297Z,17.66
2017-05-26T05:11:07.599Z,16.20
2017-05-26T05:13:35.883Z,16.10
2017-05-26T05:16:05.013Z,17.98
2017-05-26T05:18:33.295Z,18.20
2017-05-26T05:21:01.608Z,17.92
2017-05-26T05:23:29.949Z,17.40
2017-05-26T05:25:58.241Z,16.04
2017-05-26T05:28:26.599Z,18.24
2017-05-26T05:30:54.928Z,17.66
2017-05-26T05:33:26.449Z,17.78
2017-05-26T05:35:55.853Z,18.42
2017-05-26T05:38:24.608Z,17.24
2017-05-26T05:40:53.021Z,17.50
2017-05-26T05:43:21.325Z,19.34
2017-05-26T05:45:49.653Z,18.20
2017-05-26T05:48:17.939Z,18.14
2017-05-26T05:50:46.760Z,16.58
2017-05-26T05:53:15.164Z,18.80
2017-05-26T05:55:44.044Z,19.64
2017-05-26T05:58:12.399Z,19.58
2017-05-26T06:00:40.731Z,19.36
2017-05-26T06:03:09.352Z,17.62
2017-05-26T06:05:37.644Z,17.50
2017-05-26T06:08:05.979Z,19.42
2017-05-26T06:10:34.595Z,17.62
2017-05-26T06:13:02.891Z,16.54
2017-05-26T06:15:31.186Z,17.72
2017-05-26T06:17:59.609Z,19.08
2017-05-26T06:20:27.920Z,16.92
2017-05-26T06:22:56.241Z,16.30
2017-05-26T06:25:24.565Z,18.78
2017-05-26T06:27:52.843Z,17.64
2017-05-26T06:30:21.245Z,16.56
2017-05-26T06:32:49.573Z,15.48
2017-05-26T06:35:17.903Z,14.56
2017-05-26T06:37:46.196Z,16.56
2017-05-26T06:40:16.643Z,15.50
2017-05-26T06:42:45.059Z,15.60
2017-05-26T06:45:13.363Z,15.54
2017-05-26T06:47:41.660Z,14.96
2017-05-26T06:50:10.051Z,15.64
2017-05-26T06:52:38.350Z,15.72
2017-05-26T06:55:06.634Z,14.50
2017-05-26T06:57:35.006Z,17.84
2017-05-26T07:00:03.343Z,16.28
2017-05-26T07:02:31.671Z,14.46
2017-05-26T07:04:59.974Z,14.36
2017-05-26T07:07:28.274Z,14.68
2017-05-26T07:09:56.603Z,12.94
2017-05-26T07:12:25.199Z,15.38
2017-05-26T07:14:53.487Z,14.52
2017-05-26T07:17:21.833Z,15.40
2017-05-26T07:19:50.216Z,14.74
2017-05-26T07:22:18.516Z,12.96
2017-05-26T07:24:46.855Z,13.80
2017-05-26T07:27:15.256Z,14.02
2017-05-26T07:29:43.548Z,13.02
2017-05-26T07:32:11.888Z,13.68
2017-05-26T07:34:40.217Z,12.82
2017-05-26T07:37:08.580Z,13.24
2017-05-26T07:39:36.876Z,12.30
2017-05-26T07:42:05.183Z,13.92
2017-05-26T07:44:33.511Z,12.38
2017-05-26T07:47:01.872Z,11.88
2017-05-26T07:49:30.167Z,14.44
2017-05-26T07:51:58.510Z,13.54
2017-05-26T07:54:26.799Z,15.66
2017-05-26T07:56:55.149Z,11.56
2017-05-26T07:59:23.464Z,11.24
2017-05-26T08:01:51.758Z,13.76
2017-05-26T08:04:20.104Z,13.74
2017-05-26T08:06:48.408Z,12.74
2017-05-26T08:09:16.879Z,13.18
2017-05-26T08:11:45.212Z,12.60
2017-05-26T08:14:13.580Z,14.84
2017-05-26T08:16:41.915Z,13.06
2017-05-26T08:19:10.219Z,13.74
2017-05-26T08:21:38.517Z,14.30
2017-05-26T08:24:06.858Z,12.84
2017-05-26T08:26:35.149Z,13.56
2017-05-26T08:29:03.443Z,14.44
2017-05-26T08:31:31.772Z,12.78
2017-05-26T08:34:00.073Z,12.70
2017-05-26T08:36:28.389Z,14.58
2017-05-26T08:38:56.735Z,13.54
2017-05-26T08:41:25.035Z,10.68
2017-05-26T08:43:53.346Z,11.76
2017-05-26T08:46:21.674Z,10.70
2017-05-26T08:48:49.964Z,12.86
2017-05-26T08:51:18.271Z,10.08
2017-05-26T08:53:46.607Z,12.98
2017-05-26T08:56:14.903Z,12.28
2017-05-26T08:58:43.192Z,9.86
2017-05-26T09:01:11.659Z,12.26
2017-05-26T09:03:39.950Z,11.24
2017-05-26T09:06:08.390Z,9.82
2017-05-26T09:08:36.972Z,12.28
2017-05-26T09:11:05.269Z,11.26
2017-05-26T09:13:33.607Z,11.04
2017-05-26T09:16:01.929Z,10.70
2017-05-26T09:18:30.233Z,12.14
2017-05-26T09:20:58.572Z,9.86
2017-05-26T09:23:26.868Z,9.90
2017-05-26T09:25:55.232Z,10.38
2017-05-26T09:28:23.578Z,9.82
2017-05-26T09:30:51.871Z,10.54
2017-05-26T09:33:20.208Z,10.08
2017-05-26T09:35:48.486Z,9.02
2017-05-26T09:38:16.891Z,10.16
2017-05-26T09:40:45.221Z,10.06
2017-05-26T09:43:13.508Z,9.70
2017-05-26T09:45:41.885Z,9.82
2017-05-26T09:48:10.952Z,9.28
2017-05-26T09:50:44.590Z,9.78
2017-05-26T09:53:18.357Z,9.66
2017-05-26T09:55:46.929Z,10.80
2017-05-26T09:58:15.804Z,9.82
2017-05-26T10:00:44.644Z,10.38
2017-05-26T10:03:13.196Z,10.04
2017-05-26T10:05:41.540Z,7.30
2017-05-26T10:08:09.823Z,9.38
2017-05-26T10:10:38.113Z,9.44
2017-05-26T10:13:06.458Z,9.78
2017-05-26T10:15:34.763Z,9.36
2017-05-26T10:18:03.052Z,11.02
2017-05-26T10:20:31.362Z,9.50
2017-05-26T10:22:59.669Z,11.20
2017-05-26T10:25:27.998Z,9.76
2017-05-26T10:27:56.324Z,10.02
2017-05-26T10:30:24.652Z,10.76
2017-05-26T10:32:53.010Z,8.24
2017-05-26T10:35:21.342Z,9.18
2017-05-26T10:37:49.667Z,7.14
2017-05-26T10:40:17.959Z,8.92
2017-05-26T10:42:46.546Z,8.38
2017-05-26T10:45:14.870Z,8.50
2017-05-26T10:47:43.160Z,8.30
2017-05-26T10:50:11.508Z,9.40
2017-05-26T10:52:39.911Z,7.52
2017-05-26T10:55:08.628Z,7.14
2017-05-26T10:57:37.228Z,6.34
2017-05-26T11:00:05.512Z,6.72
2017-05-26T11:02:33.816Z,8.12
2017-05-26T11:05:02.155Z,7.02
2017-05-26T11:07:30.445Z,7.38
2017-05-26T11:09:58.740Z,7.24
2017-05-26T11:12:27.128Z,7.10
2017-05-26T11:14:55.419Z,7.76
2017-05-26T11:17:23.698Z,6.90
2017-05-26T11:19:52.242Z,6.72
2017-05-26T11:22:20.536Z,6.22
2017-05-26T11:24:48.851Z,7.36
2017-05-26T11:27:17.134Z,6.68
2017-05-26T11:29:45.490Z,7.32
2017-05-26T11:32:13.771Z,7.36
2017-05-26T11:34:42.076Z,6.44
2017-05-26T11:37:10.408Z,7.60
2017-05-26T11:39:38.723Z,5.96
2017-05-26T11:42:07.017Z,7.26
2017-05-26T11:44:35.348Z,7.46
2017-05-26T11:47:03.889Z,6.92
2017-05-26T11:49:32.216Z,7.52
2017-05-26T11:52:00.507Z,6.48
2017-05-26T11:54:28.833Z,6.42
2017-05-26T11:56:57.152Z,6.54
2017-05-26T11:59:25.441Z,7.32
2017-05-26T12:01:53.977Z,6.66
2017-05-26T12:04:22.267Z,5.72
2017-05-26T12:06:50.596Z,6.92
2017-05-26T12:09:18.976Z,6.78
2017-05-26T12:11:47.268Z,6.80
2017-05-26T12:14:15.605Z,7.78
2017-05-26T12:16:43.905Z,6.42
2017-05-26T12:19:12.184Z,7.40
2017-05-26T12:21:40.503Z,6.68
2017-05-26T12:24:09.008Z,6.42
2017-05-26T12:26:37.324Z,7.60
2017-05-26T12:29:05.621Z,6.26
2017-05-26T12:31:34.198Z,6.18
2017-05-26T12:34:02.527Z,7.74
2017-05-26T12:36:30.806Z,6.34
2017-05-26T12:38:59.097Z,5.92
2017-05-26T12:41:27.711Z,6.48
2017-05-26T12:43:55.996Z,5.24
2017-05-26T12:46:24.579Z,5.74
2017-05-26T12:48:52.900Z,5.20
2017-05-26T12:51:21.435Z,4.22
2017-05-26T12:53:50.014Z,4.34
2017-05-26T12:56:18.352Z,5.10
2017-05-26T12:58:46.875Z,4.70
2017-05-26T13:01:15.159Z,5.26
2017-05-26T13:03:43.483Z,5.08
2017-05-26T13:06:11.781Z,5.04
2017-05-26T13:08:40.062Z,5.10
2017-05-26T13:11:08.396Z,3.76
2017-05-26T13:13:36.694Z,4.78
2017-05-26T13:16:04.986Z,3.82
2017-05-26T13:18:33.332Z,4.48
2017-05-26T13:21:01.890Z,4.30
2017-05-26T13:23:30.172Z,3.90
2017-05-26T13:25:58.553Z,3.92
2017-05-26T13:28:26.850Z,4.00
2017-05-26T13:30:55.167Z,3.84
2017-05-26T13:33:23.499Z,3.70
2017-05-26T13:35:51.803Z,3.18
2017-05-26T13:38:20.092Z,2.90
2017-05-26T13:40:48.428Z,3.70
2017-05-26T13:43:16.727Z,2.74
2017-05-26T13:45:45.014Z,4.52
2017-05-26T13:48:13.413Z,3.12
2017-05-26T13:50:42.019Z,3.56
2017-05-26T13:53:10.348Z,3.76
2017-05-26T13:55:38.693Z,3.30
2017-05-26T13:58:06.996Z,4.70
2017-05-26T14:00:35.292Z,4.84
2017-05-26T14:03:03.631Z,3.12
2017-05-26T14:05:31.912Z,3.52
2017-05-26T14:08:00.311Z,3.22
2017-05-26T14:10:28.650Z,3.28
2017-05-26T14:12:56.927Z,3.60
2017-05-26T14:15:25.226Z,3.26
2017-05-26T14:17:53.553Z,3.16
2017-05-26T14:20:21.858Z,3.02
2017-05-26T14:22:50.194Z,3.20
2017-05-26T14:25:18.486Z,3.24
2017-05-26T14:27:46.929Z,3.40
2017-05-26T14:30:15.267Z,3.00
2017-05-26T14:32:43.547Z,3.26
2017-05-26T14:35:11.854Z,2.70
2017-05-26T14:37:40.186Z,3.00
2017-05-26T14:40:08.483Z,3.58
2017-05-26T14:42:36.789Z,2.80
2017-05-26T14:45:05.205Z,3.10
2017-05-26T14:47:33.477Z,3.20
2017-05-26T14:50:01.773Z,2.80
2017-05-26T14:52:30.105Z,3.06
2017-05-26T14:54:58.389Z,2.94
2017-05-26T14:57:26.749Z,3.32
2017-05-26T14:59:55.060Z,2.74
2017-05-26T15:02:23.344Z,3.10
2017-05-26T15:04:51.961Z,3.50
2017-05-26T15:07:20.251Z,3.86
2017-05-26T15:09:48.531Z,3.20
2017-05-26T15:12:16.862Z,3.64
2017-05-26T15:14:45.154Z,3.54
2017-05-26T15:17:13.450Z,3.10
2017-05-26T15:19:41.809Z,3.60
2017-05-26T15:22:10.123Z,3.00
2017-05-26T15:24:38.417Z,2.78
2017-05-26T15:27:06.745Z,3.00
2017-05-26T15:29:35.034Z,3.32
2017-05-26T15:32:03.623Z,3.46
2017-05-26T15:34:31.944Z,3.04
2017-05-26T15:37:00.230Z,3.12
2017-05-26T15:39:28.516Z,2.82
2017-05-26T15:41:56.836Z,2.52
2017-05-26T15:44:25.190Z,3.02
2017-05-26T15:46:53.488Z,3.34
2017-05-26T15:49:21.806Z,3.64
2017-05-26T15:51:50.092Z,3.70
2017-05-26T15:54:18.624Z,3.50
2017-05-26T15:56:46.957Z,8.30
2017-05-26T15:59:15.245Z,4.44
2017-05-26T16:01:43.859Z,2.98
2017-05-26T16:04:12.449Z,2.72
2017-05-26T16:06:40.767Z,2.80
2017-05-26T16:09:09.060Z,2.44
2017-05-26T16:11:37.392Z,2.44
2017-05-26T16:14:05.712Z,2.12
2017-05-26T16:16:34.000Z,2.12
2017-05-26T16:19:02.391Z,2.72
2017-05-26T16:21:30.681Z,2.76
2017-05-26T16:23:58.971Z,3.28
2017-05-26T16:26:28.623Z,3.22
2017-05-26T16:28:56.933Z,2.60
2017-05-26T16:31:25.264Z,3.56
2017-05-26T16:33:53.561Z,4.46
2017-05-26T16:36:21.843Z,3.10
2017-05-26T16:38:50.168Z,2.98
2017-05-26T16:41:18.675Z,2.60
2017-05-26T16:43:47.016Z,2.64
2017-05-26T16:46:15.311Z,4.06
2017-05-26T16:48:43.607Z,2.94
2017-05-26T16:51:11.921Z,2.34
2017-05-26T16:53:40.225Z,2.60
2017-05-26T16:56:08.552Z,2.72
2017-05-26T16:58:36.843Z,3.10
2017-05-26T17:01:05.136Z,2.84
2017-05-26T17:03:33.541Z,2.80
2017-05-26T17:06:02.125Z,3.02
2017-05-26T17:08:30.407Z,2.84
2017-05-26T17:10:58.736Z,2.56
2017-05-26T17:13:27.025Z,2.78
2017-05-26T17:15:55.338Z,2.30
2017-05-26T17:18:23.658Z,3.30
2017-05-26T17:20:51.960Z,3.58
2017-05-26T17:23:20.566Z,3.10
2017-05-26T17:25:48.929Z,2.42
2017-05-26T17:28:17.310Z,3.08
2017-05-26T17:30:45.604Z,2.88
2017-05-26T17:33:13.953Z,3.16
2017-05-26T17:35:42.252Z,2.80
2017-05-26T17:38:13.722Z,3.00
2017-05-26T17:40:42.792Z,3.00
2017-05-26T17:43:11.085Z,2.42
2017-05-26T17:45:39.372Z,2.58
2017-05-26T17:48:07.687Z,2.88
2017-05-26T17:50:35.986Z,2.30
2017-05-26T17:53:04.325Z,2.46
2017-05-26T17:55:32.614Z,2.76
2017-05-26T17:58:00.908Z,2.56
2017-05-26T18:00:29.224Z,2.32
2017-05-26T18:02:57.803Z,2.14
2017-05-26T18:05:26.155Z,2.44
2017-05-26T18:07:54.508Z,2.46
2017-05-26T18:10:23.048Z,2.92
2017-05-26T18:12:51.376Z,3.04
2017-05-26T18:15:19.672Z,3.02
2017-05-26T18:17:47.964Z,2.76
2017-05-26T18:20:16.301Z,2.70
2017-05-26T18:22:44.660Z,3.74
2017-05-26T18:25:12.946Z,2.94
2017-05-26T18:27:41.493Z,3.32
2017-05-26T18:30:09.892Z,3.46
2017-05-26T18:32:38.237Z,3.00
2017-05-26T18:35:06.534Z,3.36
2017-05-26T18:37:34.833Z,3.36
2017-05-26T18:40:03.387Z,3.52
2017-05-26T18:42:31.680Z,2.76
2017-05-26T18:45:00.211Z,3.70
2017-05-26T18:47:28.557Z,3.46
2017-05-26T18:49:56.842Z,3.30
2017-05-26T18:52:25.131Z,3.90
2017-05-26T18:54:53.460Z,4.46
2017-05-26T18:57:21.744Z,3.34
2017-05-26T18:59:50.026Z,3.48
2017-05-26T19:02:18.352Z,3.84
2017-05-26T19:04:46.645Z,3.32
2017-05-26T19:07:14.986Z,3.80
2017-05-26T19:09:43.275Z,3.80
2017-05-26T19:12:11.550Z,3.48
2017-05-26T19:14:40.184Z,3.82
2017-05-26T19:17:08.466Z,4.84
2017-05-26T19:19:36.776Z,4.14
2017-05-26T19:22:05.121Z,4.40
2017-05-26T19:24:33.478Z,4.10
2017-05-26T19:27:02.078Z,4.88
2017-05-26T19:29:30.384Z,5.10
2017-05-26T19:31:58.717Z,4.64
2017-05-26T19:34:27.048Z,4.92
2017-05-26T19:36:55.349Z,4.74
2017-05-26T19:39:23.635Z,4.80
2017-05-26T19:41:51.977Z,4.68
2017-05-26T19:44:20.273Z,4.72
2017-05-26T19:46:48.569Z,5.00
2017-05-26T19:49:16.901Z,3.88
2017-05-26T19:51:45.182Z,4.98
2017-05-26T19:54:13.472Z,5.42
2017-05-26T19:56:41.791Z,4.72
2017-05-26T19:59:10.103Z,4.16
2017-05-26T20:01:38.441Z,4.70
2017-05-26T20:04:06.741Z,4.72
2017-05-26T20:06:35.022Z,5.34
2017-05-26T20:09:03.380Z,5.76
2017-05-26T20:11:32.943Z,4.82
2017-05-26T20:14:02.632Z,5.60
2017-05-26T20:16:31.757Z,5.74
2017-05-26T20:19:00.979Z,5.68
2017-05-26T20:21:30.851Z,5.58
2017-05-26T20:24:00.680Z,5.58
2017-05-26T20:26:30.281Z,5.14
2017-05-26T20:31:35.267Z,5.34
2017-05-26T20:34:04.975Z,7.46
2017-05-26T20:36:34.513Z,8.10
2017-05-26T20:39:04.531Z,8.34
2017-05-26T20:41:34.962Z,7.24
2017-05-26T20:44:04.406Z,5.66
2017-05-26T20:46:34.360Z,6.52
2017-05-26T20:49:03.463Z,5.86
2017-05-26T20:51:32.636Z,7.40
2017-05-26T20:54:01.942Z,7.58
2017-05-26T20:56:31.565Z,8.90
2017-05-26T20:59:00.303Z,5.70
2017-05-26T21:01:28.919Z,5.60
2017-05-26T21:03:58.033Z,6.26
2017-05-26T21:06:27.079Z,5.86
2017-05-26T21:08:56.775Z,5.86
2017-05-26T21:11:27.036Z,5.40
2017-05-26T21:13:55.685Z,7.72
2017-05-26T21:16:24.405Z,5.70
2017-05-26T21:18:53.454Z,7.00
2017-05-26T21:21:23.037Z,6.50
2017-05-26T21:23:52.090Z,6.80
2017-05-26T21:26:21.276Z,7.50
2017-05-26T21:28:50.457Z,6.18
2017-05-26T21:31:20.529Z,7.04
2017-05-26T21:33:49.699Z,5.12
2017-05-26T21:36:18.787Z,5.78
2017-05-26T21:38:48.324Z,6.38
2017-05-26T21:41:16.954Z,5.26
2017-05-26T21:43:46.398Z,6.90
2017-05-26T21:46:15.805Z,7.30
2017-05-26T21:48:45.553Z,6.98
2017-05-26T21:51:15.536Z,5.68
2017-05-26T21:53:44.929Z,6.06
2017-05-26T21:56:14.370Z,7.72
2017-05-26T21:58:45.046Z,6.00
2017-05-26T22:01:13.786Z,8.40
2017-05-26T22:03:44.127Z,7.80
2017-05-26T22:06:13.160Z,9.16
2017-05-26T22:08:42.291Z,7.38
2017-05-26T22:11:11.303Z,6.14
2017-05-26T22:13:40.626Z,8.84
2017-05-26T22:16:09.555Z,8.56
2017-05-26T22:18:39.405Z,6.52
2017-05-26T22:23:43.889Z,7.78
2017-05-26T22:26:14.403Z,8.30
2017-05-26T22:28:43.923Z,6.82
2017-05-26T22:31:13.325Z,6.60
2017-05-26T22:33:42.581Z,8.12
2017-05-26T22:36:11.890Z,8.48
2017-05-26T22:38:40.269Z,7.00
2017-05-26T22:41:08.552Z,7.74
2017-05-26T22:43:36.879Z,7.56
2017-05-26T22:46:05.213Z,8.16
2017-05-26T22:48:33.549Z,7.20
2017-05-26T22:51:01.844Z,7.04
2017-05-26T22:53:30.132Z,9.64
2017-05-26T22:55:58.460Z,7.52
2017-05-26T22:58:26.743Z,7.26
2017-05-26T23:00:55.587Z,7.78
2017-05-26T23:03:24.077Z,7.98
2017-05-26T23:05:52.804Z,8.72
2017-05-26T23:08:21.269Z,6.74
2017-05-26T23:10:49.882Z,6.92
2017-05-26T23:13:18.375Z,6.78
2017-05-26T23:15:46.945Z,6.96
2017-05-26T23:18:15.393Z,7.88
2017-05-26T23:20:45.210Z,7.16
2017-05-26T23:23:14.811Z,7.02
2017-05-26T23:25:44.664Z,8.04
2017-05-26T23:28:14.313Z,8.80
2017-05-26T23:30:43.885Z,7.28
2017-05-26T23:33:12.556Z,8.06
2017-05-26T23:35:41.096Z,6.98
2017-05-26T23:38:09.734Z,8.42
2017-05-26T23:40:38.534Z,6.66
2017-05-26T23:43:07.354Z,6.96
2017-05-26T23:45:37.045Z,8.40
2017-05-26T23:48:06.619Z,9.22
2017-05-26T23:50:36.042Z,7.10
2017-05-26T23:53:06.432Z,7.48
2017-05-26T23:55:35.905Z,7.66
2017-05-26T23:58:05.526Z,7.58
